Time;durP1;ratioP1;P1;durP2;ratioP2;P2;SDS_P1;SDS_P2;PMS_P1;PMS_P2;Temp;Humidity;BMP_temperature;BMP_pressure;BME280_temperature;BME280_humidity;BME280_pressure;Samples;Min_cycle;Max_cycle;Signal;HPM_P1;HPM_P2
2022/04/08 00:02:06;;;;;;;0.90;0.52;;;;;;;11.62;74.32;98120.28;5091821;28;20055;-51
2022/04/08 00:04:32;;;;;;;1.10;0.52;;;;;;;11.49;74.94;98121.25;5093822;28;20059;-51
2022/04/08 00:06:59;;;;;;;0.90;0.60;;;;;;;11.40;75.86;98117.28;5093842;28;20107;-51
2022/04/08 00:09:25;;;;;;;0.82;0.45;;;;;;;11.30;76.62;98112.53;5092466;28;20394;-51
2022/04/08 00:11:50;;;;;;;0.80;0.50;;;;;;;11.26;77.15;98110.59;5092422;28;20134;-50
2022/04/08 00:14:18;;;;;;;0.70;0.30;;;;;;;11.20;77.54;98094.66;5093634;28;20035;-50
2022/04/08 00:16:45;;;;;;;0.80;0.40;;;;;;;11.20;77.84;98107.00;5093509;28;20020;-49
2022/04/08 00:19:11;;;;;;;0.55;0.43;;;;;;;11.18;78.10;98090.66;5093521;28;20020;-49
2022/04/08 00:21:37;;;;;;;1.05;0.60;;;;;;;11.16;78.44;98085.63;5093493;28;20081;-50
2022/04/08 00:24:03;;;;;;;0.57;0.40;;;;;;;11.17;78.36;98083.81;5093433;28;20036;-49
2022/04/08 00:26:29;;;;;;;0.50;0.50;;;;;;;11.16;78.58;98075.13;5093323;28;20078;-50
2022/04/08 00:28:55;;;;;;;0.35;0.30;;;;;;;11.20;78.82;98080.72;5093388;28;20052;-50
2022/04/08 00:31:21;;;;;;;0.30;0.30;;;;;;;11.25;78.68;98093.19;5093073;28;20050;-50
2022/04/08 00:33:47;;;;;;;1.08;0.50;;;;;;;11.30;78.50;98069.72;5093261;28;20028;-50
2022/04/08 00:36:13;;;;;;;65.15;2.58;;;;;;;11.32;78.39;98078.97;5093114;28;20490;-50
2022/04/08 00:38:38;;;;;;;0.22;0.22;;;;;;;11.33;78.38;98074.56;5093203;28;20527;-50
2022/04/08 00:41:04;;;;;;;0.75;0.47;;;;;;;11.30;78.31;98065.25;5093151;28;20031;-49
2022/04/08 00:43:38;;;;;;;2.15;0.38;;;;;;;11.31;78.47;98066.88;5093121;28;20027;-49
2022/04/08 00:46:06;;;;;;;0.50;0.50;;;;;;;11.30;78.20;98067.88;5091673;28;20028;-50
2022/04/08 00:48:33;;;;;;;0.63;0.50;;;;;;;11.32;78.36;98073.72;5091890;28;20032;-51
2022/04/08 00:50:59;;;;;;;0.40;0.40;;;;;;;11.37;78.04;98075.72;5092945;28;20024;-50
2022/04/08 00:53:26;;;;;;;0.20;0.20;;;;;;;11.37;78.04;98060.75;5092930;28;20078;-49
2022/04/08 00:55:52;;;;;;;0.57;0.20;;;;;;;11.39;77.74;98077.09;5092733;28;20024;-50
2022/04/08 00:58:18;;;;;;;0.20;0.20;;;;;;;11.42;77.53;98067.16;5091444;28;20020;-50
2022/04/08 01:00:44;;;;;;;1.90;0.38;;;;;;;11.43;77.35;98058.25;5092739;28;20038;-50
2022/04/08 01:03:10;;;;;;;0.52;0.47;;;;;;;11.45;77.45;98048.31;5092650;28;20020;-50
2022/04/08 01:05:36;;;;;;;1.75;0.50;;;;;;;11.46;77.37;98052.56;5092618;28;20104;-49
2022/04/08 01:08:04;;;;;;;0.50;0.30;;;;;;;11.51;77.04;98055.31;5092660;28;20028;-51
2022/04/08 01:10:29;;;;;;;0.30;0.20;;;;;;;11.52;77.59;98057.72;5092548;28;20024;-50
2022/04/08 01:12:55;;;;;;;0.50;0.30;;;;;;;11.53;77.02;98048.00;5091221;28;20149;-51
2022/04/08 01:15:22;;;;;;;3.42;1.45;;;;;;;11.57;76.59;98059.69;5092403;28;20093;-50
2022/04/08 01:17:49;;;;;;;7.32;0.80;;;;;;;11.62;76.44;98045.88;5091145;28;20032;-51
2022/04/08 01:20:16;;;;;;;0.20;0.20;;;;;;;11.68;76.32;98037.09;5091082;28;20107;-51
2022/04/08 01:22:42;;;;;;;0.50;0.40;;;;;;;11.71;75.86;98052.41;5092364;28;20070;-51
2022/04/08 01:25:10;;;;;;;1.08;0.43;;;;;;;11.72;75.83;98041.69;5091011;28;20032;-50
2022/04/08 01:27:37;;;;;;;1.05;0.40;;;;;;;11.76;75.71;98031.53;5092377;28;20020;-50
2022/04/08 01:30:05;;;;;;;2.83;0.60;;;;;;;11.73;75.55;98040.69;5090760;28;20059;-51
2022/04/08 01:32:31;;;;;;;0.35;0.35;;;;;;;11.69;75.66;98041.31;5090873;28;20016;-50
2022/04/08 01:34:57;;;;;;;0.75;0.43;;;;;;;11.65;75.78;98030.47;5092148;28;20520;-50
2022/04/08 01:37:22;;;;;;;3.13;0.82;;;;;;;11.59;76.15;98026.91;5090831;28;20400;-50
2022/04/08 01:39:48;;;;;;;0.77;0.40;;;;;;;11.55;76.02;98038.06;5092089;28;20020;-50
2022/04/08 01:42:14;;;;;;;1.08;0.63;;;;;;;11.51;76.43;98027.22;5090736;28;20021;-50
2022/04/08 01:44:40;;;;;;;0.60;0.40;;;;;;;11.48;76.56;98025.03;5092071;28;20047;-51
2022/04/08 01:47:06;;;;;;;0.40;0.40;;;;;;;11.46;76.65;98027.06;5090704;28;20088;-50
2022/04/08 01:49:32;;;;;;;0.70;0.40;;;;;;;11.43;76.78;98027.53;5092008;28;20043;-51
2022/04/08 01:51:59;;;;;;;1.08;0.40;;;;;;;11.42;77.01;98019.88;5091996;28;20164;-49
2022/04/08 01:54:24;;;;;;;1.25;0.50;;;;;;;11.39;77.04;98019.28;5092009;28;20025;-50
2022/04/08 01:56:50;;;;;;;0.63;0.40;;;;;;;11.40;76.92;98005.13;5091840;28;20126;-50
2022/04/08 01:59:16;;;;;;;1.65;0.68;;;;;;;11.40;76.96;98017.47;5091813;28;20113;-50
2022/04/08 02:01:42;;;;;;;1.42;0.60;;;;;;;11.42;77.21;98004.09;5091887;28;20031;-50
2022/04/08 02:04:08;;;;;;;0.88;0.38;;;;;;;11.43;77.14;98003.88;5091841;28;20436;-52
2022/04/08 02:06:36;;;;;;;3.30;0.55;;;;;;;11.44;76.56;98017.81;5091808;28;20454;-51
2022/04/08 02:09:03;;;;;;;1.25;0.63;;;;;;;11.44;76.53;98005.47;5091797;28;20032;-50
2022/04/08 02:11:29;;;;;;;2.20;0.43;;;;;;;11.47;76.31;98002.41;5090475;28;20081;-50
2022/04/08 02:13:54;;;;;;;1.45;0.70;;;;;;;11.51;75.99;97997.50;5090464;28;20020;-50
2022/04/08 02:16:20;;;;;;;1.13;0.75;;;;;;;11.50;76.23;97999.34;5090317;28;20034;-52
2022/04/08 02:18:46;;;;;;;2.10;1.05;;;;;;;11.55;76.32;97990.78;5090385;28;20440;-51
2022/04/08 02:21:12;;;;;;;0.95;0.50;;;;;;;11.59;76.47;97986.69;5091688;28;20451;-52
2022/04/08 02:23:39;;;;;;;1.15;0.50;;;;;;;11.62;75.84;97990.69;5091648;28;20024;-52
2022/04/08 02:26:06;;;;;;;2.67;0.77;;;;;;;11.65;75.54;97990.22;5093208;28;20051;-52
2022/04/08 02:28:35;;;;;;;0.63;0.40;;;;;;;11.65;75.67;97979.72;5095740;28;20393;-51
2022/04/08 02:31:00;;;;;;;1.65;0.55;;;;;;;11.63;75.32;97977.34;5095395;28;20036;-50
2022/04/08 02:33:26;;;;;;;0.98;0.55;;;;;;;11.62;76.35;97980.97;5095608;28;20028;-51
2022/04/08 02:35:53;;;;;;;0.68;0.55;;;;;;;11.62;76.21;97969.66;5095472;28;20533;-51
2022/04/08 02:38:18;;;;;;;0.70;0.50;;;;;;;11.58;75.98;97972.72;5094295;28;20059;-52
2022/04/08 02:40:45;;;;;;;2.83;0.45;;;;;;;11.55;75.99;97967.94;5095753;28;20048;-51
2022/04/08 02:43:11;;;;;;;1.42;0.40;;;;;;;11.51;76.40;97961.53;5095391;28;20394;-51
2022/04/08 02:45:37;;;;;;;0.60;0.40;;;;;;;11.48;76.76;97974.31;5095334;28;20030;-52
2022/04/08 02:48:03;;;;;;;0.25;0.25;;;;;;;11.42;77.28;97959.44;5094010;28;20108;-50
2022/04/08 02:50:29;;;;;;;1.42;0.85;;;;;;;11.38;77.31;97954.63;5094218;28;20027;-50
2022/04/08 02:52:55;;;;;;;1.17;0.40;;;;;;;11.32;77.47;97947.63;5093908;28;20401;-50
2022/04/08 02:55:21;;;;;;;1.38;0.40;;;;;;;11.28;77.92;97949.09;5095157;28;20367;-50
2022/04/08 02:57:47;;;;;;;2.00;0.50;;;;;;;11.28;78.02;97937.81;5093854;28;20093;-50
2022/04/08 03:00:18;;;;;;;1.05;0.60;;;;;;;11.30;78.64;97941.00;5094955;28;20034;-50
2022/04/08 03:02:45;;;;;;;0.80;0.28;;;;;;;11.31;78.42;97938.16;5095128;28;20453;-50
2022/04/08 03:05:11;;;;;;;0.35;0.35;;;;;;;11.30;78.90;97941.00;5094938;28;20040;-50
2022/04/08 03:07:37;;;;;;;0.57;0.40;;;;;;;11.31;79.02;97922.41;5093644;28;20024;-50
2022/04/08 03:10:05;;;;;;;1.38;0.40;;;;;;;11.33;78.76;97925.59;5093541;28;20451;-50
2022/04/08 03:12:31;;;;;;;2.45;0.40;;;;;;;11.33;78.88;97916.94;5093553;28;20024;-50
2022/04/08 03:14:58;;;;;;;1.48;0.40;;;;;;;11.32;78.57;97920.56;5094707;28;20073;-51
2022/04/08 03:17:24;;;;;;;0.88;0.45;;;;;;;11.30;78.42;97914.75;5093504;28;20024;-50
2022/04/08 03:19:50;;;;;;;0.50;0.40;;;;;;;11.28;78.62;97917.59;5093477;28;20489;-50
2022/04/08 03:22:19;;;;;;;1.20;0.50;;;;;;;11.29;78.93;97927.06;5094681;28;20028;-50
2022/04/08 03:24:48;;;;;;;2.92;0.50;;;;;;;11.29;78.46;97911.31;5094663;28;20024;-50
2022/04/08 03:27:15;;;;;;;0.65;0.35;;;;;;;11.31;78.72;97918.97;5094552;28;20021;-51
2022/04/08 03:29:41;;;;;;;0.47;0.43;;;;;;;11.29;78.45;97907.88;5094584;28;20367;-50
2022/04/08 03:32:08;;;;;;;0.70;0.30;;;;;;;11.32;78.65;97908.22;5092911;28;20070;-50
2022/04/08 03:34:34;;;;;;;0.60;0.30;;;;;;;11.35;78.63;97904.38;5093084;28;20096;-51
2022/04/08 03:36:59;;;;;;;1.05;0.50;;;;;;;11.34;78.60;97902.75;5093304;28;20566;-51
2022/04/08 03:39:25;;;;;;;0.40;0.30;;;;;;;11.38;78.70;97902.06;5094205;28;20028;-50
2022/04/08 03:41:51;;;;;;;0.95;0.32;;;;;;;11.43;78.66;97900.59;5094271;28;20012;-50
2022/04/08 03:44:16;;;;;;;0.52;0.40;;;;;;;11.47;78.51;97907.00;5094289;28;20485;-51
2022/04/08 03:46:44;;;;;;;0.85;0.43;;;;;;;11.44;78.37;97889.09;5092888;28;20480;-50
2022/04/08 03:49:14;;;;;;;0.70;0.40;;;;;;;11.48;78.30;97892.84;5094177;28;20024;-51
2022/04/08 03:51:46;;;;;;;1.35;0.40;;;;;;;11.49;78.19;97891.81;5094106;28;20020;-49
2022/04/08 03:54:13;;;;;;;0.28;0.28;;;;;;;11.50;77.91;97888.19;5092738;28;20525;-50
2022/04/08 03:56:43;;;;;;;0.90;0.40;;;;;;;11.51;78.03;97882.69;5094008;28;20016;-50
2022/04/08 03:59:09;;;;;;;3.28;0.40;;;;;;;11.52;78.29;97875.63;5094039;28;20460;-50
2022/04/08 04:01:36;;;;;;;0.55;0.55;;;;;;;11.51;78.56;97864.31;5092703;28;20107;-50
2022/04/08 04:04:03;;;;;;;0.60;0.40;;;;;;;11.51;79.00;97868.75;5092535;28;20066;-50
2022/04/08 04:06:29;;;;;;;0.38;0.38;;;;;;;11.54;77.91;97858.59;5093840;28;20115;-50
2022/04/08 04:08:55;;;;;;;1.38;0.30;;;;;;;11.55;78.10;97851.50;5092490;28;20120;-51
2022/04/08 04:11:21;;;;;;;0.60;0.30;;;;;;;11.60;78.38;97846.38;5093746;28;20016;-50
2022/04/08 04:13:48;;;;;;;0.90;0.22;;;;;;;11.65;77.74;97843.88;5093720;28;20028;-51
2022/04/08 04:16:14;;;;;;;0.68;0.30;;;;;;;11.71;77.17;97834.25;5093604;28;20020;-51
2022/04/08 04:18:39;;;;;;;0.30;0.30;;;;;;;11.77;76.50;97825.44;5093632;28;20024;-51
2022/04/08 04:21:05;;;;;;;2.28;0.40;;;;;;;11.82;76.41;97822.16;5092171;28;20024;-51
2022/04/08 04:23:34;;;;;;;0.20;0.20;;;;;;;11.86;75.85;97818.03;5093579;28;20028;-52
2022/04/08 04:26:03;;;;;;;0.98;0.30;;;;;;;11.87;75.36;97827.50;5093522;28;20116;-52
2022/04/08 04:28:29;;;;;;;0.20;0.17;;;;;;;11.89;75.61;97809.72;5093529;28;20021;-51
2022/04/08 04:30:56;;;;;;;1.13;0.30;;;;;;;11.93;74.81;97819.56;5091682;28;20044;-52
2022/04/08 04:33:22;;;;;;;1.70;0.38;;;;;;;11.98;74.66;97824.13;5093351;28;20062;-51
2022/04/08 04:35:48;;;;;;;0.40;0.30;;;;;;;12.04;74.80;97820.56;5091888;28;20012;-51
2022/04/08 04:38:14;;;;;;;29.58;2.28;;;;;;;12.03;74.96;97823.41;5093466;28;20465;-51
2022/04/08 04:40:39;;;;;;;0.47;0.35;;;;;;;11.96;74.85;97831.44;5093131;28;20020;-52
2022/04/08 04:43:05;;;;;;;0.98;0.40;;;;;;;11.90;75.19;97817.38;5091807;28;20113;-51
2022/04/08 04:45:31;;;;;;;0.40;0.40;;;;;;;11.79;75.20;97820.75;5093075;28;20501;-51
2022/04/08 04:47:57;;;;;;;0.60;0.40;;;;;;;11.76;76.04;97819.41;5092884;28;20020;-51
2022/04/08 04:50:23;;;;;;;0.82;0.40;;;;;;;11.75;75.49;97811.75;5091504;28;20035;-51
2022/04/08 04:52:48;;;;;;;0.50;0.40;;;;;;;11.75;75.80;97820.44;5092922;28;20030;-51
2022/04/08 04:55:14;;;;;;;0.95;0.30;;;;;;;11.76;75.20;97829.13;5092852;28;20506;-50
2022/04/08 04:57:40;;;;;;;1.00;0.63;;;;;;;11.78;75.33;97819.97;5091522;28;20027;-52
2022/04/08 05:00:09;;;;;;;0.57;0.28;;;;;;;11.85;74.21;97813.78;5091422;28;20025;-51
2022/04/08 05:02:36;;;;;;;1.13;0.40;;;;;;;11.90;74.84;97827.88;5092784;28;20555;-52
2022/04/08 05:05:01;;;;;;;0.82;0.43;;;;;;;11.95;74.72;97819.31;5092747;28;20584;-51
2022/04/08 05:07:27;;;;;;;0.45;0.43;;;;;;;11.99;74.18;97825.69;5091673;28;20123;-52
2022/04/08 05:09:53;;;;;;;0.65;0.30;;;;;;;12.03;73.42;97826.03;5091277;28;20020;-52
2022/04/08 05:12:18;;;;;;;1.05;0.30;;;;;;;12.09;73.40;97811.97;5092637;28;20020;-52
2022/04/08 05:14:44;;;;;;;1.58;0.50;;;;;;;12.16;73.31;97816.09;5091170;28;20023;-53
2022/04/08 05:17:10;;;;;;;0.73;0.30;;;;;;;12.25;72.69;97815.72;5092490;28;20020;-51
2022/04/08 05:19:36;;;;;;;1.33;0.40;;;;;;;12.32;72.82;97808.50;5092512;28;20016;-51
2022/04/08 05:22:02;;;;;;;0.30;0.10;;;;;;;12.40;71.46;97800.25;5092364;28;20023;-51
2022/04/08 05:24:27;;;;;;;0.88;0.50;;;;;;;12.45;71.45;97797.69;5091094;28;20515;-50
2022/04/08 05:26:53;;;;;;;0.40;0.30;;;;;;;12.53;71.32;97818.38;5090986;28;20024;-51
2022/04/08 05:29:20;;;;;;;0.32;0.25;;;;;;;12.61;70.82;97814.56;5091027;28;20107;-51
2022/04/08 05:31:47;;;;;;;2.55;0.40;;;;;;;12.69;70.61;97805.50;5092011;28;20062;-51
2022/04/08 05:34:13;;;;;;;0.20;0.20;;;;;;;12.70;70.50;97809.75;5092296;28;20024;-51
2022/04/08 05:36:39;;;;;;;0.40;0.30;;;;;;;12.72;70.09;97810.31;5090759;28;20027;-51
2022/04/08 05:39:05;;;;;;;0.50;0.30;;;;;;;12.78;70.22;97812.00;5092203;28;20405;-50
2022/04/08 05:41:30;;;;;;;1.13;0.40;;;;;;;12.83;70.16;97814.72;5092139;28;20022;-50
2022/04/08 05:43:56;;;;;;;0.40;0.30;;;;;;;12.83;69.89;97817.34;5092089;28;20032;-50
2022/04/08 05:46:22;;;;;;;1.05;0.50;;;;;;;12.90;69.11;97812.75;5090709;28;20056;-50
2022/04/08 05:48:47;;;;;;;3.83;0.38;;;;;;;12.93;69.32;97814.09;5090733;28;20123;-51
2022/04/08 05:51:13;;;;;;;2.45;0.50;;;;;;;12.95;68.83;97818.09;5090667;28;20070;-50
2022/04/08 05:53:39;;;;;;;2.72;0.40;;;;;;;13.03;69.23;97824.03;5091973;28;20074;-51
2022/04/08 05:56:05;;;;;;;2.28;0.70;;;;;;;13.08;68.87;97826.72;5091895;28;20024;-51
2022/04/08 05:58:31;;;;;;;2.42;0.40;;;;;;;13.11;68.44;97826.25;5091937;28;20508;-52
2022/04/08 06:00:57;;;;;;;0.57;0.30;;;;;;;13.15;68.33;97827.38;5091171;28;20024;-52
2022/04/08 06:03:23;;;;;;;0.73;0.30;;;;;;;13.09;68.67;97815.16;5091917;28;20024;-51
2022/04/08 06:05:49;;;;;;;0.50;0.43;;;;;;;12.95;69.20;97804.91;5090517;28;20055;-51
2022/04/08 06:08:14;;;;;;;2.10;0.30;;;;;;;12.89;69.36;97834.84;5090473;28;20413;-51
2022/04/08 06:10:40;;;;;;;0.47;0.47;;;;;;;12.87;69.24;97831.63;5090485;28;20012;-51
2022/04/08 06:13:06;;;;;;;0.80;0.30;;;;;;;12.94;69.85;97823.63;5090469;28;20024;-51
2022/04/08 06:15:32;;;;;;;1.00;0.30;;;;;;;13.00;68.91;97835.84;5090377;28;20024;-51
2022/04/08 06:17:58;;;;;;;0.60;0.47;;;;;;;13.06;69.21;97831.44;5091738;28;20474;-51
2022/04/08 06:20:25;;;;;;;2.58;0.50;;;;;;;13.19;68.67;97818.75;5091919;28;20027;-51
2022/04/08 06:22:52;;;;;;;1.65;0.40;;;;;;;13.26;68.67;97831.81;5091627;28;20031;-51
2022/04/08 06:25:20;;;;;;;1.00;0.40;;;;;;;13.31;68.11;97826.63;5090387;28;20032;-51
2022/04/08 06:27:56;;;;;;;1.77;0.60;;;;;;;13.35;68.19;97834.88;5091654;28;20027;-52
2022/04/08 06:30:22;;;;;;;1.90;0.60;;;;;;;13.42;67.65;97842.59;5091497;28;20032;-52
2022/04/08 06:32:48;;;;;;;1.02;0.50;;;;;;;13.47;67.63;97840.84;5090308;28;20034;-52
2022/04/08 06:35:14;;;;;;;0.55;0.50;;;;;;;13.49;67.03;97849.31;5091503;28;20028;-52
2022/04/08 06:37:40;;;;;;;0.93;0.40;;;;;;;13.51;67.09;97841.19;5090243;28;20520;-51
2022/04/08 06:40:10;;;;;;;0.68;0.35;;;;;;;13.56;66.48;97836.78;5090509;28;20032;-51
2022/04/08 06:42:36;;;;;;;0.75;0.40;;;;;;;13.62;66.89;97805.22;5091543;28;20480;-52
2022/04/08 06:45:03;;;;;;;0.30;0.30;;;;;;;13.69;66.00;97817.19;5091485;28;20031;-52
2022/04/08 06:47:29;;;;;;;0.30;0.20;;;;;;;13.73;66.21;97823.59;5091502;28;20047;-52
2022/04/08 06:49:55;;;;;;;0.20;0.20;;;;;;;13.72;66.19;97814.09;5090164;28;20478;-52
2022/04/08 06:52:21;;;;;;;0.57;0.20;;;;;;;13.76;65.92;97812.56;5090115;28;20020;-51
2022/04/08 06:54:47;;;;;;;1.95;0.55;;;;;;;13.78;66.51;97797.28;5091339;28;20397;-52
2022/04/08 06:57:13;;;;;;;0.50;0.47;;;;;;;13.81;66.54;97792.56;5091359;28;20099;-52
2022/04/08 06:59:40;;;;;;;0.90;0.80;;;;;;;13.89;66.41;97787.66;5089994;28;20051;-52
2022/04/08 07:02:05;;;;;;;1.40;0.30;;;;;;;13.97;65.71;97797.81;5090015;28;20107;-53
2022/04/08 07:04:31;;;;;;;3.58;0.22;;;;;;;13.96;65.24;97798.03;5091346;28;20378;-51
2022/04/08 07:06:57;;;;;;;3.33;0.50;;;;;;;13.94;65.78;97786.94;5091285;28;20405;-51
2022/04/08 07:09:23;;;;;;;0.50;0.30;;;;;;;13.92;66.22;97789.84;5089980;28;20417;-51
2022/04/08 07:11:49;;;;;;;0.88;0.47;;;;;;;13.93;65.95;97804.59;5090980;28;20032;-52
2022/04/08 07:14:14;;;;;;;4.35;2.92;;;;;;;13.96;65.74;97800.69;5093558;28;20546;-52
2022/04/08 07:16:43;;;;;;;0.60;0.60;;;;;;;14.03;65.76;97792.59;5094755;28;20020;-52
2022/04/08 07:19:12;;;;;;;4.20;0.90;;;;;;;14.10;64.93;97809.03;5093739;28;20449;-52
2022/04/08 07:21:38;;;;;;;0.55;0.50;;;;;;;14.16;65.23;97800.94;5093385;28;20127;-51
2022/04/08 07:24:04;;;;;;;5.47;0.90;;;;;;;14.22;65.31;97801.00;5094693;28;20611;-50
2022/04/08 07:26:29;;;;;;;0.25;0.25;;;;;;;14.26;65.17;97807.38;5093285;28;20104;-52
2022/04/08 07:28:55;;;;;;;3.03;0.52;;;;;;;14.31;64.95;97808.25;5094598;28;20497;-51
2022/04/08 07:31:21;;;;;;;1.85;0.60;;;;;;;14.38;64.75;97802.78;5092969;28;20047;-52
2022/04/08 07:33:47;;;;;;;0.60;0.40;;;;;;;14.42;63.52;97806.53;5093136;28;20024;-51
2022/04/08 07:36:13;;;;;;;1.52;0.95;;;;;;;14.45;63.45;97811.31;5094396;28;20024;-51
2022/04/08 07:38:39;;;;;;;0.35;0.35;;;;;;;14.55;62.69;97811.44;5093101;28;20395;-50
2022/04/08 07:41:05;;;;;;;0.40;0.30;;;;;;;14.64;62.25;97805.75;5093052;28;20042;-52
2022/04/08 07:43:31;;;;;;;3.20;0.70;;;;;;;14.71;62.10;97809.78;5094359;28;20486;-52
2022/04/08 07:45:56;;;;;;;1.02;0.40;;;;;;;14.89;62.16;97807.81;5092911;28;20028;-52
2022/04/08 07:48:22;;;;;;;2.10;0.90;;;;;;;15.02;61.92;97822.50;5094260;28;20024;-52
2022/04/08 07:50:48;;;;;;;4.95;0.85;;;;;;;15.06;61.69;97818.31;5092836;28;20032;-52
2022/04/08 07:53:15;;;;;;;4.65;0.63;;;;;;;15.09;61.50;97821.25;5093123;28;20024;-52
2022/04/08 07:55:41;;;;;;;1.85;0.65;;;;;;;15.13;61.54;97819.69;5093963;28;20048;-52
2022/04/08 07:58:07;;;;;;;1.25;0.60;;;;;;;15.22;60.74;97811.31;5092740;28;20058;-53
2022/04/08 08:00:34;;;;;;;1.27;0.47;;;;;;;15.30;60.56;97808.19;5092601;28;20056;-53
2022/04/08 08:03:00;;;;;;;2.25;0.80;;;;;;;15.30;60.86;97819.56;5093900;28;20031;-52
2022/04/08 08:05:27;;;;;;;0.88;0.77;;;;;;;15.31;60.58;97821.16;5093847;28;20035;-52
2022/04/08 08:07:54;;;;;;;5.10;3.15;;;;;;;15.37;60.52;97819.34;5093887;28;20156;-52
2022/04/08 08:10:22;;;;;;;3.70;2.28;;;;;;;15.48;61.05;97828.97;5092452;28;20028;-52
2022/04/08 08:12:49;;;;;;;1.02;0.50;;;;;;;15.64;59.55;97824.59;5093724;28;20770;-52
2022/04/08 08:15:16;;;;;;;0.52;0.45;;;;;;;15.60;58.75;97818.22;5093598;28;20020;-51
2022/04/08 08:17:42;;;;;;;1.45;0.50;;;;;;;15.54;58.71;97768.97;5092325;28;20024;-52
2022/04/08 08:20:09;;;;;;;0.43;0.40;;;;;;;15.52;59.04;97802.81;5093593;28;20024;-52
2022/04/08 08:22:35;;;;;;;1.65;0.80;;;;;;;15.54;59.47;97817.38;5093523;28;20117;-52
2022/04/08 08:25:03;;;;;;;0.95;0.60;;;;;;;15.71;59.54;97803.97;5091516;28;20024;-52
2022/04/08 08:27:35;;;;;;;0.57;0.57;;;;;;;15.81;58.77;97810.44;5092008;28;20024;-52
2022/04/08 08:30:01;;;;;;;2.33;0.47;;;;;;;15.77;58.23;97805.66;5093471;28;20039;-52
2022/04/08 08:32:27;;;;;;;1.10;0.40;;;;;;;15.85;58.38;97793.00;5092952;28;20032;-52
2022/04/08 08:34:53;;;;;;;3.03;0.65;;;;;;;15.89;58.81;97818.66;5093192;28;20166;-52
2022/04/08 08:37:19;;;;;;;2.42;0.60;;;;;;;16.09;58.42;97812.69;5093201;28;20020;-51
2022/04/08 08:39:44;;;;;;;2.72;1.75;;;;;;;16.09;57.64;97804.75;5091863;28;20077;-52
2022/04/08 08:42:13;;;;;;;4.57;4.13;;;;;;;15.93;58.01;97817.09;5093061;28;20058;-50
2022/04/08 08:44:39;;;;;;;0.75;0.57;;;;;;;15.83;58.06;97829.50;5093142;28;20055;-52
2022/04/08 08:47:12;;;;;;;0.80;0.80;;;;;;;15.67;58.45;97820.63;5091766;28;20572;-51
2022/04/08 08:49:42;;;;;;;1.08;0.43;;;;;;;15.59;58.41;97869.50;5093089;28;20073;-52
2022/04/08 08:52:09;;;;;;;1.52;0.40;;;;;;;15.50;58.82;97849.88;5093321;28;20024;-52
2022/04/08 08:54:35;;;;;;;2.20;0.80;;;;;;;15.44;59.02;97829.72;5092954;28;20397;-52
2022/04/08 08:57:02;;;;;;;4.10;3.75;;;;;;;15.40;59.27;97834.72;5092791;28;20027;-52
2022/04/08 08:59:29;;;;;;;1.20;0.90;;;;;;;15.42;59.15;97839.75;5092837;28;20103;-51
2022/04/08 09:02:01;;;;;;;1.42;1.13;;;;;;;15.38;59.66;97820.94;5091798;28;20153;-52
2022/04/08 09:04:28;;;;;;;2.58;0.40;;;;;;;15.41;59.29;97814.34;5091422;28;20017;-51
2022/04/08 09:06:53;;;;;;;0.77;0.52;;;;;;;15.41;58.93;97824.94;5091453;28;20032;-51
2022/04/08 09:09:32;;;;;;;1.45;0.80;;;;;;;15.38;59.54;97820.94;5092665;28;20022;-52
2022/04/08 09:12:12;;;;;;;1.17;0.55;;;;;;;15.53;59.04;97822.91;5092632;28;20024;-52
2022/04/08 09:14:38;;;;;;;0.88;0.75;;;;;;;15.73;58.36;97817.00;5092627;28;20101;-52
2022/04/08 09:17:04;;;;;;;0.70;0.68;;;;;;;15.83;58.15;97817.03;5092513;28;20054;-50
2022/04/08 09:19:33;;;;;;;2.28;0.43;;;;;;;15.96;57.17;97816.59;5092553;28;20020;-51
2022/04/08 09:21:59;;;;;;;1.13;0.60;;;;;;;16.09;57.45;97836.50;5091160;28;20081;-51
2022/04/08 09:24:27;;;;;;;0.50;0.50;;;;;;;16.20;56.68;97849.78;5092455;28;20024;-51
2022/04/08 09:26:54;;;;;;;3.95;1.13;;;;;;;16.22;56.84;97829.16;5092401;28;20024;-52
2022/04/08 09:29:21;;;;;;;1.63;0.80;;;;;;;16.23;56.29;97799.78;5092379;28;20016;-52
2022/04/08 09:31:55;;;;;;;0.90;0.70;;;;;;;16.19;56.07;97851.66;5092076;28;20040;-51
2022/04/08 09:34:22;;;;;;;0.65;0.47;;;;;;;16.12;56.14;97859.84;5092192;28;20413;-52
2022/04/08 09:36:48;;;;;;;0.68;0.50;;;;;;;16.14;55.96;97864.88;5091420;28;20641;-52
2022/04/08 09:39:14;;;;;;;0.80;0.80;;;;;;;16.08;56.93;97865.91;5092191;28;20022;-52
2022/04/08 09:41:45;;;;;;;3.53;0.68;;;;;;;16.11;56.51;97839.69;5092163;28;20027;-51
2022/04/08 09:44:13;;;;;;;0.63;0.40;;;;;;;16.16;56.23;97845.03;5090864;28;20067;-52
2022/04/08 09:46:40;;;;;;;2.22;0.90;;;;;;;16.16;55.50;97852.97;5092078;28;20056;-51
2022/04/08 09:49:06;;;;;;;0.95;0.70;;;;;;;16.15;55.67;97855.88;5092093;28;20024;-51
2022/04/08 09:51:40;;;;;;;0.80;0.57;;;;;;;16.10;56.23;97871.75;5092032;28;20016;-51
2022/04/08 09:54:12;;;;;;;0.65;0.45;;;;;;;16.15;56.12;97871.75;5092021;28;20103;-52
2022/04/08 09:56:38;;;;;;;2.72;0.77;;;;;;;16.24;56.50;97845.56;5092250;28;20636;-52
2022/04/08 09:59:10;;;;;;;1.83;1.02;;;;;;;16.43;56.13;97852.03;5091951;28;20371;-52
2022/04/08 10:01:37;;;;;;;0.60;0.55;;;;;;;16.60;56.07;97848.38;5091856;28;20016;-52
2022/04/08 10:04:07;;;;;;;2.53;1.80;;;;;;;16.73;55.21;97822.19;5090588;28;20126;-52
2022/04/08 10:06:38;;;;;;;2.90;0.98;;;;;;;16.74;55.06;97826.44;5091815;28;20024;-52
2022/04/08 10:09:06;;;;;;;2.65;0.85;;;;;;;16.76;54.93;97837.59;5090587;28;20036;-52
2022/04/08 10:11:40;;;;;;;0.50;0.30;;;;;;;16.73;54.63;97824.84;5090761;28;20028;-51
2022/04/08 10:14:20;;;;;;;0.52;0.40;;;;;;;16.75;54.24;97820.09;5091898;28;20073;-52
2022/04/08 10:16:51;;;;;;;0.60;0.35;;;;;;;16.79;53.95;97815.06;5091761;28;20034;-52
2022/04/08 10:19:17;;;;;;;0.70;0.43;;;;;;;16.81;54.53;97809.50;5091801;28;20024;-51
2022/04/08 10:21:43;;;;;;;1.27;0.88;;;;;;;16.85;54.58;97798.13;5090392;28;20021;-51
2022/04/08 10:24:13;;;;;;;1.65;0.50;;;;;;;16.93;53.92;97794.97;5091635;28;20026;-52
2022/04/08 10:26:56;;;;;;;0.63;0.40;;;;;;;16.90;54.41;97807.94;5091679;28;20105;-52
2022/04/08 10:29:22;;;;;;;0.75;0.38;;;;;;;16.84;54.16;97798.41;5091619;28;20058;-52
2022/04/08 10:31:56;;;;;;;0.80;0.55;;;;;;;16.74;54.33;97815.03;5090053;28;20068;-52
2022/04/08 10:34:23;;;;;;;2.63;0.70;;;;;;;16.61;55.11;97804.94;5091555;28;20086;-52
2022/04/08 10:36:49;;;;;;;0.80;0.60;;;;;;;16.59;55.48;97805.22;5090177;28;20056;-52
2022/04/08 10:39:20;;;;;;;2.33;0.60;;;;;;;16.57;55.35;97802.03;5091564;28;20016;-52
2022/04/08 10:42:00;;;;;;;2.15;0.38;;;;;;;16.58;55.25;97779.78;5090270;28;20105;-52
2022/04/08 10:44:31;;;;;;;0.43;0.40;;;;;;;16.63;54.82;97798.31;5091570;28;20035;-51
2022/04/08 10:47:00;;;;;;;1.65;0.90;;;;;;;16.62;55.42;97795.94;5092864;28;20020;-52
2022/04/08 10:49:27;;;;;;;0.43;0.30;;;;;;;16.65;54.83;97795.44;5095385;28;20016;-51
2022/04/08 10:51:52;;;;;;;1.30;0.80;;;;;;;16.55;54.68;97793.53;5094080;28;20028;-52
2022/04/08 10:54:19;;;;;;;6.90;0.90;;;;;;;16.55;55.11;97791.69;5093916;28;20017;-52
2022/04/08 10:56:57;;;;;;;1.33;0.40;;;;;;;16.52;55.17;97784.28;5093826;28;20031;-52
2022/04/08 10:59:27;;;;;;;3.20;0.70;;;;;;;16.49;55.21;97768.88;5095230;28;20028;-51
2022/04/08 11:01:58;;;;;;;2.50;0.60;;;;;;;16.52;55.24;97763.09;5093819;28;20527;-52
2022/04/08 11:04:28;;;;;;;1.00;0.68;;;;;;;16.66;55.33;97765.22;5093768;28;20028;-51
2022/04/08 11:06:54;;;;;;;0.63;0.52;;;;;;;16.83;55.25;97738.53;5095025;28;20065;-50
2022/04/08 11:09:21;;;;;;;0.75;0.50;;;;;;;16.95;54.56;97737.19;5094999;28;20108;-52
2022/04/08 11:11:52;;;;;;;1.38;0.70;;;;;;;16.93;54.17;97725.28;5093625;28;20451;-53
2022/04/08 11:14:18;;;;;;;2.33;0.73;;;;;;;16.85;54.54;97737.19;5094974;28;20020;-52
2022/04/08 11:16:44;;;;;;;0.50;0.30;;;;;;;16.80;53.87;97753.03;5094763;28;20027;-52
2022/04/08 11:19:11;;;;;;;0.25;0.25;;;;;;;16.68;53.73;97716.22;5094799;28;20016;-52
2022/04/08 11:21:38;;;;;;;2.17;0.95;;;;;;;16.51;54.12;97732.34;5093430;28;20042;-52
2022/04/08 11:24:09;;;;;;;0.30;0.30;;;;;;;16.45;54.77;97732.59;5093420;28;20028;-51
2022/04/08 11:26:49;;;;;;;1.30;0.82;;;;;;;16.38;54.95;97738.16;5094697;28;20084;-51
2022/04/08 11:29:17;;;;;;;2.78;0.52;;;;;;;16.38;54.78;97717.75;5093226;28;20017;-52
2022/04/08 11:31:45;;;;;;;1.38;0.80;;;;;;;16.40;54.75;97724.63;5092986;28;20421;-52
2022/04/08 11:34:13;;;;;;;0.55;0.55;;;;;;;16.54;54.48;97729.19;5094574;28;20024;-52